Time;durP1;ratioP1;P1;durP2;ratioP2;P2;SDS_P1;SDS_P2;PMS_P1;PMS_P2;Temp;Humidity;BMP_temperature;BMP_pressure;BME280_temperature;BME280_humidity;BME280_pressure;Samples;Min_cycle;Max_cycle;Signal;HPM_P1;HPM_P2
2023/02/05 00:01:31;;;;;;;2.60;1.53;;;;;;;-4.23;100.00;103278.53;4993928;28;20034;-78
2023/02/05 00:03:58;;;;;;;2.33;1.70;;;;;;;-4.31;100.00;103270.16;4996591;28;20100;-78
2023/02/05 00:06:25;;;;;;;2.23;1.47;;;;;;;-4.31;100.00;103270.16;5010955;28;20034;-80
2023/02/05 00:08:52;;;;;;;2.90;1.50;;;;;;;-4.27;100.00;103267.06;5008850;28;20058;-79
2023/02/05 00:11:19;;;;;;;2.37;1.70;;;;;;;-4.30;100.00;103268.47;4997136;28;20034;-79
2023/02/05 00:13:45;;;;;;;2.47;1.57;;;;;;;-4.33;100.00;103275.97;5008815;28;20044;-80
2023/02/05 00:16:18;;;;;;;2.70;1.57;;;;;;;-4.41;100.00;103267.59;5005222;28;20459;-79
2023/02/05 00:18:45;;;;;;;2.87;1.57;;;;;;;-4.45;100.00;103264.66;4992758;28;20058;-79
2023/02/05 00:21:12;;;;;;;2.47;1.47;;;;;;;-4.44;100.00;103269.06;5024023;28;20054;-80
2023/02/05 00:23:40;;;;;;;3.20;1.40;;;;;;;-4.42;100.00;103275.22;5024448;28;20048;-79
2023/02/05 00:26:07;;;;;;;2.30;1.53;;;;;;;-4.44;100.00;103271.63;5008690;28;20044;-79
2023/02/05 00:28:35;;;;;;;3.60;1.53;;;;;;;-4.43;100.00;103266.59;4995830;28;20525;-80
2023/02/05 00:31:10;;;;;;;3.13;1.60;;;;;;;-4.41;100.00;103261.53;5005695;28;20045;-79
2023/02/05 00:33:37;;;;;;;3.13;1.77;;;;;;;-4.44;100.00;103257.06;5009880;28;20176;-79
2023/02/05 00:36:05;;;;;;;3.37;2.10;;;;;;;-4.33;100.00;103266.56;5006359;28;20044;-78
2023/02/05 00:38:31;;;;;;;3.30;1.97;;;;;;;-4.35;100.00;103259.47;5007487;28;20038;-80
2023/02/05 00:40:58;;;;;;;2.93;1.87;;;;;;;-4.46;100.00;103253.41;4992211;28;20052;-79
2023/02/05 00:43:25;;;;;;;2.63;1.57;;;;;;;-4.44;100.00;103251.00;5020605;28;20065;-80
2023/02/05 00:45:52;;;;;;;4.50;2.30;;;;;;;-4.44;100.00;103249.31;5006503;28;20042;-79
2023/02/05 00:48:19;;;;;;;3.03;1.70;;;;;;;-4.44;100.00;103254.47;5010985;28;20038;-78
2023/02/05 00:50:51;;;;;;;3.23;1.70;;;;;;;-4.39;100.00;103263.47;4990486;28;20458;-78
2023/02/05 00:53:18;;;;;;;3.40;1.87;;;;;;;-4.55;100.00;103257.81;4996234;28;20045;-79
2023/02/05 00:55:47;;;;;;;3.50;1.77;;;;;;;-4.68;100.00;103250.78;5006272;28;20046;-79
2023/02/05 00:58:14;;;;;;;3.07;1.50;;;;;;;-4.66;100.00;103226.00;4986211;28;20038;-80
2023/02/05 01:00:41;;;;;;;2.50;1.90;;;;;;;-4.46;100.00;103226.72;4998002;28;20049;-79
2023/02/05 01:03:09;;;;;;;3.40;1.80;;;;;;;-4.49;100.00;103229.97;5007427;28;20490;-79
2023/02/05 01:05:36;;;;;;;3.27;1.87;;;;;;;-4.64;100.00;103229.59;5025296;28;20037;-78
2023/02/05 01:08:04;;;;;;;3.03;2.17;;;;;;;-4.70;100.00;103234.28;4990940;28;20038;-78
2023/02/05 01:10:31;;;;;;;3.30;1.90;;;;;;;-4.73;100.00;103220.22;4999840;28;20042;-79
2023/02/05 01:12:58;;;;;;;3.23;1.87;;;;;;;-4.73;100.00;103238.25;5000228;28;20062;-79
2023/02/05 01:15:25;;;;;;;4.17;2.50;;;;;;;-4.74;100.00;103227.03;4993008;28;20045;-79
2023/02/05 01:17:51;;;;;;;2.67;1.87;;;;;;;-4.73;100.00;103223.69;5004832;28;20092;-78
2023/02/05 01:20:19;;;;;;;2.67;1.77;;;;;;;-4.82;100.00;103221.25;4994352;28;20057;-79
2023/02/05 01:22:46;;;;;;;3.57;1.90;;;;;;;-4.89;100.00;103213.78;5008287;28;20042;-80
2023/02/05 01:25:13;;;;;;;3.17;1.97;;;;;;;-4.95;100.00;103207.25;4994832;28;20072;-79
2023/02/05 01:27:39;;;;;;;2.40;1.73;;;;;;;-4.95;100.00;103202.09;4996549;28;20042;-80
2023/02/05 01:30:07;;;;;;;4.13;1.80;;;;;;;-5.00;100.00;103199.13;4994945;28;20049;-79
2023/02/05 01:32:39;;;;;;;2.13;1.50;;;;;;;-5.03;100.00;103203.13;5003380;28;20042;-80
2023/02/05 01:35:07;;;;;;;2.87;1.67;;;;;;;-5.03;100.00;103213.44;5002794;28;20037;-79
2023/02/05 01:37:34;;;;;;;2.37;1.67;;;;;;;-4.93;100.00;103205.69;4987622;28;20114;-79
2023/02/05 01:40:04;;;;;;;3.43;1.97;;;;;;;-5.01;100.00;103211.88;5007514;28;20056;-78
2023/02/05 01:42:34;;;;;;;2.92;1.70;;;;;;;-5.09;100.00;103211.25;4989810;28;20045;-80
2023/02/05 01:45:28;;;;;;;3.20;2.00;;;;;;;-5.21;100.00;103202.50;5010163;28;20052;-79
2023/02/05 01:47:59;;;;;;;3.50;2.00;;;;;;;-5.16;100.00;103202.09;5014344;28;20423;-79
2023/02/05 01:50:42;;;;;;;3.30;1.97;;;;;;;-5.16;100.00;103196.03;5023283;28;20048;-79
2023/02/05 01:53:11;;;;;;;3.00;2.30;;;;;;;-5.20;100.00;103199.16;5008987;28;20042;-79
2023/02/05 01:55:44;;;;;;;4.17;2.20;;;;;;;-5.31;100.00;103190.50;5003631;28;20111;-79
2023/02/05 01:58:11;;;;;;;3.75;1.95;;;;;;;-5.29;100.00;103182.91;5013222;28;20620;-78
2023/02/05 02:00:38;;;;;;;6.43;2.30;;;;;;;-5.40;100.00;103188.03;5008863;28;20049;-79
2023/02/05 02:03:05;;;;;;;3.53;2.40;;;;;;;-5.47;100.00;103175.41;4999411;28;20052;-79
2023/02/05 02:05:31;;;;;;;3.83;2.23;;;;;;;-5.48;100.00;103170.13;5008439;28;20041;-79
2023/02/05 02:07:58;;;;;;;4.30;2.23;;;;;;;-5.54;100.00;103173.13;4998934;28;20088;-79
2023/02/05 02:10:25;;;;;;;3.73;2.13;;;;;;;-5.61;100.00;103173.38;4986336;28;20578;-79
2023/02/05 02:12:55;;;;;;;4.00;2.03;;;;;;;-5.54;100.00;103174.78;4999645;28;20041;-80
2023/02/05 02:15:24;;;;;;;3.20;2.23;;;;;;;-5.56;100.00;103166.91;4989197;28;20133;-79
2023/02/05 02:17:54;;;;;;;5.07;2.43;;;;;;;-5.61;100.00;103175.03;5007913;28;20124;-80
2023/02/05 02:20:25;;;;;;;3.87;2.30;;;;;;;-5.73;100.00;103174.88;4989323;28;20045;-80
2023/02/05 02:22:55;;;;;;;3.70;2.00;;;;;;;-5.81;100.00;103165.59;5004194;28;20049;-79
2023/02/05 02:25:48;;;;;;;3.73;2.00;;;;;;;-5.57;100.00;103164.22;5003987;28;20076;-80
2023/02/05 02:28:25;;;;;;;3.77;2.00;;;;;;;-5.62;100.00;103157.78;4987726;28;20034;-79
2023/02/05 02:31:03;;;;;;;4.70;1.83;;;;;;;-5.67;100.00;103148.00;5001586;28;20121;-79
2023/02/05 02:33:30;;;;;;;2.67;2.10;;;;;;;-5.56;100.00;103151.47;5008570;28;20053;-79
2023/02/05 02:36:00;;;;;;;3.63;2.10;;;;;;;-5.57;100.00;103143.63;5001044;28;20080;-79
2023/02/05 02:38:35;;;;;;;4.23;2.43;;;;;;;-5.75;100.00;103143.84;5025464;28;20041;-79
2023/02/05 02:41:26;;;;;;;3.10;1.80;;;;;;;-5.85;100.00;103143.84;5013064;28;20128;-80
2023/02/05 02:43:57;;;;;;;4.03;2.10;;;;;;;-5.94;100.00;103137.97;5005337;28;20042;-79
2023/02/05 02:46:29;;;;;;;3.33;1.90;;;;;;;-6.00;100.00;103142.56;4980184;28;20049;-79
2023/02/05 02:49:00;;;;;;;3.57;2.10;;;;;;;-6.08;100.00;103141.00;4986853;28;20050;-79
2023/02/05 02:51:28;;;;;;;3.87;2.20;;;;;;;-6.11;100.00;103131.38;5008008;28;20682;-79
2023/02/05 02:53:57;;;;;;;3.77;2.07;;;;;;;-5.91;100.00;103138.22;4999403;28;21024;-79
2023/02/05 02:56:25;;;;;;;4.00;1.83;;;;;;;-5.88;100.00;103137.56;5005596;28;20304;-79
2023/02/05 02:58:55;;;;;;;4.00;1.97;;;;;;;-5.91;100.00;103135.63;4993064;28;20190;-80
2023/02/05 03:01:23;;;;;;;7.07;2.00;;;;;;;-6.00;100.00;103150.28;4983016;28;20041;-80
2023/02/05 03:03:57;;;;;;;3.87;1.73;;;;;;;-6.08;100.00;103146.16;5014668;28;20799;-80
2023/02/05 03:06:25;;;;;;;3.03;2.08;;;;;;;-6.16;100.00;103142.91;5009770;28;20044;-80
2023/02/05 03:09:03;;;;;;;4.33;1.73;;;;;;;-6.09;100.00;103152.06;5003071;28;20038;-79
2023/02/05 03:11:30;;;;;;;4.87;2.10;;;;;;;-6.18;100.00;103148.72;5001455;28;20303;-80
2023/02/05 03:13:57;;;;;;;3.43;2.10;;;;;;;-6.23;100.00;103138.00;5010889;28;20045;-80
2023/02/05 03:16:25;;;;;;;3.10;1.70;;;;;;;-6.18;100.00;103141.88;4981849;28;20296;-80
2023/02/05 03:18:53;;;;;;;4.13;1.80;;;;;;;-6.27;100.00;103142.00;4989170;28;20046;-80
2023/02/05 03:21:29;;;;;;;3.20;2.07;;;;;;;-6.27;100.00;103153.97;4988899;28;20042;-79
2023/02/05 03:23:55;;;;;;;3.07;2.00;;;;;;;-6.21;100.00;103166.47;5008258;28;20295;-80
2023/02/05 03:26:33;;;;;;;3.27;2.10;;;;;;;-6.28;100.00;103149.59;4986376;28;20060;-78
2023/02/05 03:29:03;;;;;;;2.97;1.90;;;;;;;-6.06;100.00;103149.75;5005834;28;20052;-79
2023/02/05 03:31:46;;;;;;;3.47;1.77;;;;;;;-6.11;100.00;103151.06;4998784;28;20048;-78
2023/02/05 03:34:24;;;;;;;3.30;2.13;;;;;;;-6.10;100.00;103155.41;5022766;28;20037;-77
2023/02/05 03:37:15;;;;;;;3.43;1.80;;;;;;;-6.09;100.00;103140.09;5027159;28;20076;-77
2023/02/05 03:40:04;;;;;;;2.90;1.73;;;;;;;-6.17;100.00;103142.78;5011308;28;20037;-77
2023/02/05 03:42:39;;;;;;;2.63;1.40;;;;;;;-6.17;100.00;103143.69;5029203;28;20816;-77
2023/02/05 03:45:37;;;;;;;2.50;1.60;;;;;;;-6.03;100.00;103135.50;5012389;28;20038;-77
2023/02/05 03:48:14;;;;;;;3.57;1.60;;;;;;;-6.05;100.00;103138.72;5010432;28;20046;-77
2023/02/05 03:51:03;;;;;;;2.77;1.87;;;;;;;-6.14;100.00;103130.19;5016721;28;20124;-77
2023/02/05 03:53:38;;;;;;;3.07;1.90;;;;;;;-6.02;100.00;103131.25;5014041;28;20288;-77
2023/02/05 03:56:08;;;;;;;3.50;2.00;;;;;;;-5.95;100.00;103136.16;5016400;28;20043;-77
2023/02/05 03:58:40;;;;;;;4.70;1.90;;;;;;;-6.00;100.00;103147.72;5027105;28;20042;-78
2023/02/05 04:01:08;;;;;;;4.47;1.93;;;;;;;-5.94;100.00;103161.13;4993870;28;20459;-78
2023/02/05 04:03:34;;;;;;;3.93;2.07;;;;;;;-5.94;100.00;103158.53;5012283;28;20057;-78
2023/02/05 04:06:01;;;;;;;6.00;2.30;;;;;;;-5.92;100.00;103154.44;5028168;28;20037;-77
2023/02/05 04:08:28;;;;;;;3.13;1.90;;;;;;;-5.89;100.00;103153.75;5007024;28;20034;-77
2023/02/05 04:10:55;;;;;;;4.07;2.27;;;;;;;-5.83;100.00;103155.19;5002009;28;20059;-77
2023/02/05 04:13:25;;;;;;;3.40;1.80;;;;;;;-5.77;100.00;103158.28;5033934;28;20041;-77
2023/02/05 04:15:51;;;;;;;2.73;1.70;;;;;;;-5.66;100.00;103160.09;5014629;28;20040;-77
2023/02/05 04:18:18;;;;;;;4.33;2.40;;;;;;;-5.63;100.00;103158.53;5017678;28;20030;-77
2023/02/05 04:20:45;;;;;;;2.87;1.93;;;;;;;-5.47;100.00;103162.53;5009231;28;20323;-77
2023/02/05 04:23:11;;;;;;;3.20;2.10;;;;;;;-5.53;100.00;103159.47;5002685;28;20042;-77
2023/02/05 04:25:38;;;;;;;3.43;1.93;;;;;;;-5.58;100.00;103147.88;5015080;28;20096;-77
2023/02/05 04:28:05;;;;;;;3.97;2.10;;;;;;;-5.57;100.00;103148.75;5006944;28;20065;-77
2023/02/05 04:30:32;;;;;;;4.07;1.97;;;;;;;-5.60;100.00;103139.13;5024002;28;20041;-77
2023/02/05 04:32:59;;;;;;;2.63;1.60;;;;;;;-5.44;100.00;103137.06;5032967;28;20056;-77
2023/02/05 04:35:25;;;;;;;2.87;1.67;;;;;;;-5.33;100.00;103129.31;5026397;28;20453;-78
2023/02/05 04:37:52;;;;;;;3.70;2.13;;;;;;;-5.48;100.00;103123.78;5027007;28;20125;-77
2023/02/05 04:40:19;;;;;;;4.40;2.50;;;;;;;-5.43;100.00;103133.69;4994409;28;20038;-77
2023/02/05 04:42:45;;;;;;;4.83;2.63;;;;;;;-5.49;100.00;103129.69;5030444;28;20034;-77
2023/02/05 04:45:12;;;;;;;3.53;1.90;;;;;;;-5.54;100.00;103134.50;5003833;28;20049;-77
2023/02/05 04:47:39;;;;;;;2.33;1.50;;;;;;;-5.59;100.00;103140.91;5004078;28;20136;-77
2023/02/05 04:50:05;;;;;;;5.17;2.23;;;;;;;-5.58;100.00;103142.72;5031823;28;20044;-77
2023/02/05 04:52:32;;;;;;;3.50;2.40;;;;;;;-5.62;100.00;103150.06;5018047;28;20053;-78
2023/02/05 04:54:59;;;;;;;5.50;2.83;;;;;;;-5.60;100.00;103145.94;5031870;28;20042;-78
2023/02/05 04:57:25;;;;;;;4.57;2.63;;;;;;;-5.60;100.00;103143.38;5000351;28;20419;-77
2023/02/05 04:59:52;;;;;;;6.53;3.17;;;;;;;-5.59;100.00;103130.59;5018255;28;20617;-77
2023/02/05 05:02:18;;;;;;;8.57;4.17;;;;;;;-5.51;100.00;103127.00;5025723;28;20087;-77
2023/02/05 05:04:45;;;;;;;10.57;5.03;;;;;;;-5.48;100.00;103123.78;5023474;28;20492;-77
2023/02/05 05:07:12;;;;;;;8.47;3.47;;;;;;;-5.50;100.00;103123.66;5026740;28;20044;-77
2023/02/05 05:09:38;;;;;;;6.93;3.60;;;;;;;-5.51;100.00;103115.81;5034041;28;20033;-77
2023/02/05 05:12:05;;;;;;;6.97;2.87;;;;;;;-5.51;100.00;103121.84;5011748;28;20038;-77
2023/02/05 05:14:32;;;;;;;4.07;2.73;;;;;;;-5.51;100.00;103113.22;4993686;28;20037;-77
2023/02/05 05:16:58;;;;;;;5.37;2.90;;;;;;;-5.41;100.00;103126.09;5015777;28;20049;-77
2023/02/05 05:19:25;;;;;;;5.80;2.90;;;;;;;-5.34;100.00;103128.41;4998210;28;20038;-77
2023/02/05 05:21:52;;;;;;;4.43;2.50;;;;;;;-5.34;100.00;103138.72;5015917;28;20068;-77
2023/02/05 05:24:18;;;;;;;3.77;2.67;;;;;;;-5.41;100.00;103146.69;5032979;28;20328;-77
2023/02/05 05:26:45;;;;;;;3.90;2.47;;;;;;;-5.48;100.00;103147.84;5027354;28;20037;-77
2023/02/05 05:29:13;;;;;;;3.07;2.07;;;;;;;-5.47;100.00;103139.34;5029642;28;20041;-80
2023/02/05 05:31:40;;;;;;;4.60;2.40;;;;;;;-5.50;100.00;103146.84;5030671;28;20052;-77
2023/02/05 05:34:07;;;;;;;5.60;2.60;;;;;;;-5.56;100.00;103150.56;5024987;28;20033;-77
2023/02/05 05:36:34;;;;;;;5.97;2.60;;;;;;;-5.57;100.00;103151.34;5014545;28;20056;-77
2023/02/05 05:43:45;;;;;;;5.30;2.57;;;;;;;-5.51;100.00;103155.34;5031749;28;20041;-77
2023/02/05 05:44:32;;;;;;;3.87;2.90;;;;;;;-5.50;100.00;103149.41;5015458;28;20052;-77
2023/02/05 05:46:58;;;;;;;6.43;2.87;;;;;;;-5.45;100.00;103157.53;5010087;28;20095;-77
2023/02/05 05:49:25;;;;;;;3.97;2.37;;;;;;;-5.50;100.00;103153.66;5001258;28;20037;-77
2023/02/05 05:51:52;;;;;;;4.03;2.33;;;;;;;-5.51;100.00;103159.59;5006852;28;20400;-77
2023/02/05 05:54:18;;;;;;;3.60;2.53;;;;;;;-5.54;100.00;103159.34;5007635;28;20041;-77
2023/02/05 05:56:45;;;;;;;2.53;2.30;;;;;;;-5.51;100.00;103154.44;5022844;28;20041;-77
2023/02/05 05:59:12;;;;;;;3.73;1.77;;;;;;;-5.39;100.00;103173.47;5027990;28;20044;-77
2023/02/05 06:01:38;;;;;;;3.87;2.03;;;;;;;-5.36;100.00;103173.75;5024798;28;20041;-77
2023/02/05 06:04:05;;;;;;;3.83;2.27;;;;;;;-5.38;100.00;103167.59;5008677;28;20391;-77
2023/02/05 06:06:32;;;;;;;4.07;2.23;;;;;;;-5.37;100.00;103164.25;5021885;28;20037;-77
2023/02/05 06:08:59;;;;;;;3.97;2.20;;;;;;;-5.34;100.00;103154.19;5007446;28;20046;-77
2023/02/05 06:11:25;;;;;;;4.37;2.50;;;;;;;-5.31;100.00;103161.25;5026424;28;20402;-77
2023/02/05 06:13:52;;;;;;;4.17;1.97;;;;;;;-5.34;100.00;103155.84;5016096;28;20049;-77
2023/02/05 06:16:19;;;;;;;5.10;2.37;;;;;;;-5.34;100.00;103151.59;5008086;28;20034;-77
2023/02/05 06:18:45;;;;;;;2.90;2.20;;;;;;;-5.34;100.00;103163.59;5016675;28;20029;-77
2023/02/05 06:21:12;;;;;;;3.67;2.07;;;;;;;-5.34;100.00;103151.59;5012854;28;20050;-77
2023/02/05 06:23:39;;;;;;;5.20;2.20;;;;;;;-5.32;100.00;103146.56;5008420;28;20033;-77
2023/02/05 06:26:05;;;;;;;3.40;1.93;;;;;;;-5.33;100.00;103144.78;5028705;28;20045;-77
2023/02/05 06:28:32;;;;;;;3.77;2.23;;;;;;;-5.18;100.00;103139.22;5030220;28;20041;-77
2023/02/05 06:30:58;;;;;;;3.40;1.87;;;;;;;-5.19;100.00;103145.16;5018598;28;20132;-77
2023/02/05 06:33:25;;;;;;;10.40;6.30;;;;;;;-5.27;100.00;103147.88;5034869;28;20033;-77
2023/02/05 06:35:52;;;;;;;71.90;28.17;;;;;;;-5.25;100.00;103149.78;5014968;28;20112;-77
2023/02/05 06:38:18;;;;;;;45.27;19.60;;;;;;;-4.98;100.00;103147.69;5004202;28;20050;-77
2023/02/05 06:40:46;;;;;;;22.67;9.73;;;;;;;-4.79;100.00;103148.44;5035985;28;20048;-77
2023/02/05 06:43:13;;;;;;;12.10;6.07;;;;;;;-4.87;100.00;103141.75;4999792;28;20056;-77
2023/02/05 06:45:40;;;;;;;6.23;2.43;;;;;;;-4.64;100.00;103143.59;5028690;28;20045;-77
2023/02/05 06:48:06;;;;;;;4.30;2.87;;;;;;;-4.65;100.00;103157.25;5002533;28;20491;-77
2023/02/05 06:50:33;;;;;;;4.93;3.30;;;;;;;-4.88;100.00;103148.53;5020613;28;20045;-77
2023/02/05 06:53:00;;;;;;;5.57;2.40;;;;;;;-4.97;100.00;103155.53;5028320;28;20034;-77
2023/02/05 06:55:26;;;;;;;3.43;2.57;;;;;;;-4.91;100.00;103168.94;5032671;28;20038;-77
2023/02/05 06:57:53;;;;;;;4.03;1.97;;;;;;;-4.95;100.00;103178.88;5017462;28;20075;-77
2023/02/05 07:00:20;;;;;;;3.67;2.27;;;;;;;-4.97;100.00;103177.84;5001169;28;20044;-77
2023/02/05 07:02:47;;;;;;;4.83;3.03;;;;;;;-4.92;100.00;103172.28;5020288;28;20136;-77
2023/02/05 07:05:13;;;;;;;7.30;4.10;;;;;;;-4.89;100.00;103159.63;5015447;28;20233;-77
2023/02/05 07:07:40;;;;;;;9.20;4.33;;;;;;;-4.84;100.00;103152.28;5005392;28;20041;-77
2023/02/05 07:10:07;;;;;;;6.30;3.93;;;;;;;-4.85;100.00;103159.13;5013693;28;20042;-77
2023/02/05 07:12:34;;;;;;;5.13;3.17;;;;;;;-4.79;100.00;103152.66;5027618;28;20101;-77
2023/02/05 07:15:00;;;;;;;4.60;3.20;;;;;;;-4.77;100.00;103161.44;5035193;28;20052;-77
2023/02/05 07:17:27;;;;;;;7.43;3.77;;;;;;;-4.73;100.00;103155.75;5028421;28;20503;-77
2023/02/05 07:19:54;;;;;;;3.93;2.53;;;;;;;-4.76;100.00;103153.81;5014561;28;20042;-77
2023/02/05 07:22:24;;;;;;;3.30;2.33;;;;;;;-4.77;100.00;103149.44;5018273;28;20072;-77
2023/02/05 07:24:50;;;;;;;4.33;2.37;;;;;;;-4.60;100.00;103138.81;5036392;28;20041;-78
2023/02/05 07:27:17;;;;;;;3.97;2.30;;;;;;;-4.42;100.00;103143.63;5010215;28;20049;-79
2023/02/05 07:29:43;;;;;;;3.17;2.00;;;;;;;-4.55;100.00;103131.41;5009907;28;20030;-79
2023/02/05 07:32:10;;;;;;;3.20;2.17;;;;;;;-4.58;100.00;103129.50;5001976;28;20050;-77
2023/02/05 07:34:37;;;;;;;4.93;2.33;;;;;;;-4.56;100.00;103124.47;5032605;28;20057;-79
2023/02/05 07:37:04;;;;;;;3.17;2.17;;;;;;;-4.49;100.00;103121.59;4999271;28;20050;-78
2023/02/05 07:39:32;;;;;;;3.57;2.00;;;;;;;-4.40;100.00;103113.69;4992624;28;20053;-78
2023/02/05 07:41:59;;;;;;;2.83;1.80;;;;;;;-4.20;100.00;103112.66;5039690;28;20184;-77
2023/02/05 07:44:26;;;;;;;3.33;1.80;;;;;;;-4.25;100.00;103112.31;5021111;28;20502;-78
2023/02/05 07:46:53;;;;;;;3.80;2.23;;;;;;;-4.30;100.00;103121.38;5007384;28;20055;-77
2023/02/05 07:49:19;;;;;;;4.83;1.87;;;;;;;-4.25;100.00;103126.13;5017560;28;20042;-78
2023/02/05 07:51:46;;;;;;;4.70;2.20;;;;;;;-4.30;100.00;103131.69;5032154;28;20096;-78
2023/02/05 07:54:14;;;;;;;3.13;1.97;;;;;;;-4.30;100.00;103136.84;5015584;28;20053;-77
2023/02/05 07:56:41;;;;;;;9.60;4.60;;;;;;;-4.33;100.00;103140.09;5034227;28;20052;-78
2023/02/05 07:59:08;;;;;;;11.00;4.60;;;;;;;-4.26;100.00;103123.44;5013431;28;20036;-78
2023/02/05 08:01:34;;;;;;;7.27;4.23;;;;;;;-4.16;100.00;103128.53;5021942;28;20037;-78
2023/02/05 08:04:01;;;;;;;6.40;2.83;;;;;;;-4.01;100.00;103126.25;5014915;28;20559;-77
2023/02/05 08:06:28;;;;;;;4.30;2.90;;;;;;;-4.06;100.00;103128.47;5003016;28;20187;-78
2023/02/05 08:08:54;;;;;;;5.40;2.63;;;;;;;-4.12;100.00;103128.00;5029450;28;20049;-78
2023/02/05 08:11:21;;;;;;;5.07;2.50;;;;;;;-4.07;100.00;103129.25;5023839;28;20050;-78
2023/02/05 08:13:48;;;;;;;3.87;2.47;;;;;;;-3.88;100.00;103120.34;5035935;28;20045;-78
2023/02/05 08:16:15;;;;;;;3.53;2.53;;;;;;;-3.76;100.00;103116.13;5010216;28;20050;-77
2023/02/05 08:18:46;;;;;;;4.13;2.70;;;;;;;-3.84;100.00;103122.41;5012505;28;20673;-78
2023/02/05 08:21:12;;;;;;;3.07;2.00;;;;;;;-3.84;100.00;103120.72;5014593;28;20129;-77
2023/02/05 08:23:39;;;;;;;4.70;2.17;;;;;;;-3.63;100.00;103116.28;5004069;28;20038;-79
2023/02/05 08:26:06;;;;;;;4.53;2.30;;;;;;;-3.70;100.00;103124.31;5011275;28;20643;-80
2023/02/05 08:28:32;;;;;;;4.83;2.87;;;;;;;-3.71;100.00;103113.09;5022444;28;20041;-78
2023/02/05 08:30:59;;;;;;;3.50;2.67;;;;;;;-3.69;100.00;103105.50;4995387;28;20104;-81
2023/02/05 08:33:26;;;;;;;4.10;2.30;;;;;;;-3.63;100.00;103111.09;5010589;28;20498;-79
2023/02/05 08:35:52;;;;;;;3.63;2.33;;;;;;;-3.59;100.00;103113.16;4993824;28;20042;-80
2023/02/05 08:38:19;;;;;;;3.30;2.57;;;;;;;-3.50;100.00;103115.53;5012368;28;20056;-80
2023/02/05 08:40:46;;;;;;;5.17;2.40;;;;;;;-3.46;100.00;103122.72;4999604;28;20068;-81
2023/02/05 08:43:13;;;;;;;5.00;2.57;;;;;;;-3.36;100.00;103127.81;4983867;28;20042;-79
2023/02/05 08:45:39;;;;;;;8.17;3.10;;;;;;;-3.26;100.00;103132.91;5010662;28;20132;-80
2023/02/05 08:48:06;;;;;;;10.77;3.27;;;;;;;-3.25;100.00;103132.09;4986172;28;20045;-81
2023/02/05 08:50:33;;;;;;;3.63;2.60;;;;;;;-3.17;100.00;103127.50;4992566;28;20037;-79
2023/02/05 08:52:59;;;;;;;4.83;2.40;;;;;;;-3.14;100.00;103127.72;5010214;28;20052;-81
2023/02/05 08:55:26;;;;;;;5.87;2.90;;;;;;;-3.08;100.00;103125.59;4992991;28;20429;-80
2023/02/05 08:57:54;;;;;;;4.50;2.90;;;;;;;-3.14;100.00;103126.03;4994084;28;20096;-79
2023/02/05 09:00:21;;;;;;;4.33;2.60;;;;;;;-3.04;100.00;103121.53;4996236;28;20164;-82
2023/02/05 09:02:47;;;;;;;4.30;2.90;;;;;;;-2.97;100.00;103113.47;4996813;28;20041;-81
2023/02/05 09:05:14;;;;;;;4.50;2.53;;;;;;;-2.99;100.00;103118.53;5006160;28;20065;-81
2023/02/05 09:07:41;;;;;;;5.53;3.37;;;;;;;-2.95;100.00;103128.28;4996103;28;20140;-80
2023/02/05 09:10:10;;;;;;;5.53;3.10;;;;;;;-2.78;100.00;103129.53;4995176;28;20044;-81
2023/02/05 09:12:37;;;;;;;3.73;2.67;;;;;;;-2.61;100.00;103131.69;5012198;28;20141;-81
2023/02/05 09:15:05;;;;;;;5.73;2.57;;;;;;;-2.57;100.00;103137.97;5004042;28;20492;-80
2023/02/05 09:17:31;;;;;;;4.67;2.43;;;;;;;-2.63;100.00;103132.34;5007232;28;20049;-81
2023/02/05 09:19:58;;;;;;;4.00;2.80;;;;;;;-2.87;100.00;103134.03;4992250;28;20060;-80
2023/02/05 09:22:25;;;;;;;4.87;3.13;;;;;;;-2.70;100.00;103135.25;4996249;28;20048;-81
2023/02/05 09:24:51;;;;;;;4.87;3.00;;;;;;;-2.66;100.00;103132.13;4995436;28;20519;-81
2023/02/05 09:27:18;;;;;;;5.07;3.03;;;;;;;-2.59;100.00;103135.28;4998614;28;20056;-81
2023/02/05 09:29:45;;;;;;;5.10;3.47;;;;;;;-2.51;100.00;103132.34;4997211;28;20052;-80
2023/02/05 09:32:11;;;;;;;3.90;2.40;;;;;;;-2.44;100.00;103130.28;4985627;28;20045;-81
2023/02/05 09:34:38;;;;;;;4.40;2.90;;;;;;;-2.35;100.00;103125.78;4986358;28;20033;-80
2023/02/05 09:37:05;;;;;;;5.60;3.03;;;;;;;-2.44;100.00;103124.19;5006786;28;20042;-81
2023/02/05 09:39:31;;;;;;;4.53;2.80;;;;;;;-2.43;100.00;103126.94;4993909;28;20519;-81
2023/02/05 09:42:27;;;;;;;5.10;2.83;;;;;;;-2.29;100.00;103120.13;5023809;28;20037;-81
2023/02/05 09:45:05;;;;;;;3.77;2.43;;;;;;;-2.21;100.00;103118.97;5020350;28;20088;-80
2023/02/05 09:47:38;;;;;;;4.40;2.57;;;;;;;-2.02;100.00;103115.97;5003544;28;20041;-80
2023/02/05 09:50:26;;;;;;;4.43;1.97;;;;;;;-1.95;100.00;103107.84;4996004;28;20038;-80
2023/02/05 09:53:04;;;;;;;3.63;2.30;;;;;;;-1.84;100.00;103108.63;4998118;28;20503;-80
2023/02/05 09:55:34;;;;;;;5.90;2.80;;;;;;;-1.63;100.00;103114.34;5019806;28;20037;-80
2023/02/05 09:58:06;;;;;;;4.13;2.70;;;;;;;-1.65;100.00;103122.03;5009425;28;20050;-81
2023/02/05 10:00:45;;;;;;;5.50;2.60;;;;;;;-1.46;100.00;103122.47;5006864;28;20033;-80
2023/02/05 10:03:49;;;;;;;6.20;2.93;;;;;;;-1.42;100.00;103118.41;5000413;28;20096;-81
2023/02/05 10:06:20;;;;;;;3.67;2.57;;;;;;;-1.32;100.00;103109.56;5001689;28;20148;-80
2023/02/05 10:09:03;;;;;;;4.77;3.07;;;;;;;-1.35;100.00;103105.03;5022609;28;20045;-80
2023/02/05 10:11:39;;;;;;;4.83;3.13;;;;;;;-1.32;100.00;103092.31;5012022;28;20037;-80
2023/02/05 10:14:21;;;;;;;4.20;2.90;;;;;;;-1.00;100.00;103083.16;5021471;28;20041;-80
2023/02/05 10:16:54;;;;;;;6.10;2.93;;;;;;;-1.05;100.00;103084.53;5027495;28;20052;-80
2023/02/05 10:19:36;;;;;;;4.70;3.03;;;;;;;-0.84;100.00;103075.56;5006334;28;20104;-80
2023/02/05 10:22:24;;;;;;;6.67;3.20;;;;;;;-0.68;100.00;103070.53;5017410;28;20637;-81
2023/02/05 10:25:19;;;;;;;5.33;3.30;;;;;;;-0.64;100.00;103077.72;5000000;28;20041;-81
2023/02/05 10:27:56;;;;;;;5.68;3.25;;;;;;;-0.51;100.00;103076.78;5023099;28;20062;-80
2023/02/05 10:30:33;;;;;;;4.90;3.13;;;;;;;-0.44;100.00;103073.78;4992531;28;20041;-83
2023/02/05 10:33:07;;;;;;;4.57;2.50;;;;;;;-0.33;100.00;103071.88;5024046;28;20129;-81
2023/02/05 10:35:56;;;;;;;4.63;2.92;;;;;;;-0.19;97.75;103063.22;4993201;28;20041;-81
2023/02/05 10:38:24;;;;;;;3.47;2.90;;;;;;;-0.11;93.74;103059.41;5009838;28;20103;-83
2023/02/05 10:40:57;;;;;;;17.87;11.03;;;;;;;-0.20;95.80;103064.03;5005689;28;20053;-81
2023/02/05 10:43:39;;;;;;;5.67;3.63;;;;;;;-0.17;95.29;103060.72;4999767;28;20079;-79
2023/02/05 10:46:12;;;;;;;2.60;1.93;;;;;;;-0.04;93.99;103058.97;5011074;28;20052;-79
2023/02/05 10:48:59;;;;;;;3.57;2.40;;;;;;;0.13;92.65;103053.91;5028931;28;20065;-79
2023/02/05 10:51:41;;;;;;;3.03;2.40;;;;;;;0.15;92.67;103062.69;5005872;28;20049;-79
2023/02/05 10:54:18;;;;;;;5.63;2.33;;;;;;;0.30;91.57;103074.00;5008116;28;20044;-79
2023/02/05 10:56:46;;;;;;;4.87;2.27;;;;;;;0.26;89.41;103061.63;4990755;28;20038;-79
2023/02/05 10:59:37;;;;;;;3.37;2.00;;;;;;;0.19;89.43;103060.38;5004033;28;20054;-79
2023/02/05 11:02:08;;;;;;;2.97;1.80;;;;;;;0.30;88.82;103066.19;4995808;28;20076;-80
2023/02/05 11:04:46;;;;;;;3.40;2.03;;;;;;;0.33;90.50;103068.97;5004431;28;20087;-79
2023/02/05 11:07:25;;;;;;;4.83;2.13;;;;;;;0.34;90.23;103067.28;5005675;28;20083;-79
2023/02/05 11:09:51;;;;;;;3.13;2.00;;;;;;;0.51;88.13;103057.09;5007143;28;20052;-81
2023/02/05 11:12:31;;;;;;;3.23;1.60;;;;;;;0.60;89.47;103055.84;4993343;28;20041;-81
2023/02/05 11:15:00;;;;;;;4.83;1.57;;;;;;;0.71;88.95;103060.84;4992630;28;20041;-81
2023/02/05 11:17:32;;;;;;;4.03;1.40;;;;;;;0.88;78.55;103046.19;4996039;28;20048;-80
2023/02/05 11:20:04;;;;;;;2.97;1.17;;;;;;;1.08;77.96;103049.91;5007223;28;20037;-80
2023/02/05 11:22:35;;;;;;;1.73;1.50;;;;;;;1.10;77.17;103036.19;5008227;28;20136;-79
2023/02/05 11:25:26;;;;;;;2.70;1.43;;;;;;;1.10;77.29;103045.72;4998427;28;20422;-78
2023/02/05 11:28:03;;;;;;;2.43;1.30;;;;;;;1.10;74.99;103036.19;4996092;28;20116;-79
2023/02/05 11:30:31;;;;;;;1.90;1.23;;;;;;;1.25;73.55;103038.75;5011478;28;20042;-80
2023/02/05 11:33:20;;;;;;;3.10;1.33;;;;;;;1.31;73.50;103046.91;4988612;28;20049;-81